sensor_id;sensor_type;location;lat;lon;timestamp;temperature;humidity
27409;DHT22;20413;50.782;7.152;2023-03-01T00:02:17;-0.50;99.90
27409;DHT22;20413;50.782;7.152;2023-03-01T00:04:42;-0.60;99.90
27409;DHT22;20413;50.782;7.152;2023-03-01T00:07:08;-0.60;99.90
27409;DHT22;20413;50.782;7.152;2023-03-01T00:09:35;-0.60;99.90
27409;DHT22;20413;50.782;7.152;2023-03-01T00:12:01;-0.70;99.90
27409;DHT22;20413;50.782;7.152;2023-03-01T00:14:26;-0.70;99.90
27409;DHT22;20413;50.782;7.152;2023-03-01T00:16:52;-0.70;99.90
27409;DHT22;20413;50.782;7.152;2023-03-01T00:19:19;-0.70;99.90
27409;DHT22;20413;50.782;7.152;2023-03-01T00:21:45;-0.80;99.90
27409;DHT22;20413;50.782;7.152;2023-03-01T00:24:11;-0.80;99.90
27409;DHT22;20413;50.782;7.152;2023-03-01T00:26:37;-0.80;99.90
27409;DHT22;20413;50.782;7.152;2023-03-01T00:29:03;-0.80;99.90
27409;DHT22;20413;50.782;7.152;2023-03-01T00:31:30;-0.90;99.90
27409;DHT22;20413;50.782;7.152;2023-03-01T00:33:59;-0.90;99.90
27409;DHT22;20413;50.782;7.152;2023-03-01T00:36:30;-0.90;99.90
27409;DHT22;20413;50.782;7.152;2023-03-01T00:38:56;-0.90;99.90
27409;DHT22;20413;50.782;7.152;2023-03-01T00:41:22;-0.90;99.90
27409;DHT22;20413;50.782;7.152;2023-03-01T00:43:49;-0.90;99.90
27409;DHT22;20413;50.782;7.152;2023-03-01T00:46:18;-0.90;99.90
27409;DHT22;20413;50.782;7.152;2023-03-01T00:48:45;-0.90;99.90
27409;DHT22;20413;50.782;7.152;2023-03-01T00:51:13;-0.90;99.90
27409;DHT22;20413;50.782;7.152;2023-03-01T00:53:38;-0.90;99.90
27409;DHT22;20413;50.782;7.152;2023-03-01T00:56:06;-1.00;99.90
27409;DHT22;20413;50.782;7.152;2023-03-01T00:58:32;-1.00;99.90
27409;DHT22;20413;50.782;7.152;2023-03-01T01:00:57;-1.00;99.90
27409;DHT22;20413;50.782;7.152;2023-03-01T01:03:23;-1.00;99.90
27409;DHT22;20413;50.782;7.152;2023-03-01T01:05:51;-1.00;99.90
27409;DHT22;20413;50.782;7.152;2023-03-01T01:08:17;-1.10;99.90
27409;DHT22;20413;50.782;7.152;2023-03-01T01:10:44;-1.10;99.90
27409;DHT22;20413;50.782;7.152;2023-03-01T01:13:10;-1.10;99.90
27409;DHT22;20413;50.782;7.152;2023-03-01T01:15:36;-1.10;99.90
27409;DHT22;20413;50.782;7.152;2023-03-01T01:18:02;-1.10;99.90
27409;DHT22;20413;50.782;7.152;2023-03-01T01:20:27;-1.20;99.90
27409;DHT22;20413;50.782;7.152;2023-03-01T01:22:53;-1.20;99.90
27409;DHT22;20413;50.782;7.152;2023-03-01T01:25:18;-1.20;99.90
27409;DHT22;20413;50.782;7.152;2023-03-01T01:27:44;-1.30;99.90
27409;DHT22;20413;50.782;7.152;2023-03-01T01:30:10;-1.30;99.90
27409;DHT22;20413;50.782;7.152;2023-03-01T01:32:36;-1.40;99.90
27409;DHT22;20413;50.782;7.152;2023-03-01T01:35:02;-1.40;99.90
27409;DHT22;20413;50.782;7.152;2023-03-01T01:37:27;-1.50;99.90
27409;DHT22;20413;50.782;7.152;2023-03-01T01:39:57;-1.50;99.90
27409;DHT22;20413;50.782;7.152;2023-03-01T01:42:24;-1.50;99.90
27409;DHT22;20413;50.782;7.152;2023-03-01T01:48:12;-1.50;99.90
27409;DHT22;20413;50.782;7.152;2023-03-01T01:50:39;-1.60;99.90
27409;DHT22;20413;50.782;7.152;2023-03-01T01:53:12;-1.60;99.90
27409;DHT22;20413;50.782;7.152;2023-03-01T01:55:46;-1.60;99.90
27409;DHT22;20413;50.782;7.152;2023-03-01T01:58:15;-1.70;99.90
27409;DHT22;20413;50.782;7.152;2023-03-01T02:00:42;-1.70;99.90
27409;DHT22;20413;50.782;7.152;2023-03-01T02:03:11;-1.70;99.90
27409;DHT22;20413;50.782;7.152;2023-03-01T02:05:58;-1.70;99.90
27409;DHT22;20413;50.782;7.152;2023-03-01T02:08:29;-1.80;99.90
27409;DHT22;20413;50.782;7.152;2023-03-01T02:10:56;-1.80;99.90
27409;DHT22;20413;50.782;7.152;2023-03-01T02:13:22;-1.80;99.90
27409;DHT22;20413;50.782;7.152;2023-03-01T02:15:48;-1.80;99.90
27409;DHT22;20413;50.782;7.152;2023-03-01T02:18:17;-1.80;99.90
27409;DHT22;20413;50.782;7.152;2023-03-01T02:23:28;-1.90;99.90
27409;DHT22;20413;50.782;7.152;2023-03-01T02:26:07;-1.90;99.90
27409;DHT22;20413;50.782;7.152;2023-03-01T02:28:40;-2.00;99.90
27409;DHT22;20413;50.782;7.152;2023-03-01T02:31:07;-2.00;99.90
27409;DHT22;20413;50.782;7.152;2023-03-01T02:33:53;-2.10;99.90
27409;DHT22;20413;50.782;7.152;2023-03-01T02:36:28;-2.10;99.90
27409;DHT22;20413;50.782;7.152;2023-03-01T02:38:57;-2.10;99.90
27409;DHT22;20413;50.782;7.152;2023-03-01T02:41:25;-2.20;99.90
27409;DHT22;20413;50.782;7.152;2023-03-01T02:43:52;-2.30;99.90
27409;DHT22;20413;50.782;7.152;2023-03-01T02:46:21;-2.30;99.90
27409;DHT22;20413;50.782;7.152;2023-03-01T02:48:50;-2.30;99.90
27409;DHT22;20413;50.782;7.152;2023-03-01T02:56:36;-2.30;99.90
27409;DHT22;20413;50.782;7.152;2023-03-01T02:59:02;-2.30;99.90
27409;DHT22;20413;50.782;7.152;2023-03-01T03:01:29;-2.30;99.90
27409;DHT22;20413;50.782;7.152;2023-03-01T03:04:06;-2.30;99.90
27409;DHT22;20413;50.782;7.152;2023-03-01T03:06:32;-2.30;99.90
27409;DHT22;20413;50.782;7.152;2023-03-01T03:08:58;-2.30;99.90
27409;DHT22;20413;50.782;7.152;2023-03-01T03:11:24;-2.40;99.90
27409;DHT22;20413;50.782;7.152;2023-03-01T03:13:49;-2.40;99.90
27409;DHT22;20413;50.782;7.152;2023-03-01T03:16:15;-2.30;99.90
27409;DHT22;20413;50.782;7.152;2023-03-01T03:18:41;-2.40;99.90
27409;DHT22;20413;50.782;7.152;2023-03-01T03:21:11;-2.40;99.90
27409;DHT22;20413;50.782;7.152;2023-03-01T03:23:37;-2.40;99.90
27409;DHT22;20413;50.782;7.152;2023-03-01T03:26:04;-2.40;99.90
27409;DHT22;20413;50.782;7.152;2023-03-01T03:28:31;-2.50;99.90
27409;DHT22;20413;50.782;7.152;2023-03-01T03:30:57;-2.60;99.90
27409;DHT22;20413;50.782;7.152;2023-03-01T03:33:23;-2.60;99.90
27409;DHT22;20413;50.782;7.152;2023-03-01T03:35:50;-2.60;99.90
27409;DHT22;20413;50.782;7.152;2023-03-01T03:38:18;-2.60;99.90
27409;DHT22;20413;50.782;7.152;2023-03-01T03:41:03;-2.60;99.90
27409;DHT22;20413;50.782;7.152;2023-03-01T03:43:34;-2.60;99.90
27409;DHT22;20413;50.782;7.152;2023-03-01T03:46:00;-2.70;99.90
27409;DHT22;20413;50.782;7.152;2023-03-01T03:48:26;-2.70;99.90
27409;DHT22;20413;50.782;7.152;2023-03-01T03:50:54;-2.70;99.90
27409;DHT22;20413;50.782;7.152;2023-03-01T03:53:20;-2.80;99.90
27409;DHT22;20413;50.782;7.152;2023-03-01T03:55:46;-2.80;99.90
27409;DHT22;20413;50.782;7.152;2023-03-01T03:58:15;-2.90;99.90
27409;DHT22;20413;50.782;7.152;2023-03-01T04:00:45;-2.90;99.90
27409;DHT22;20413;50.782;7.152;2023-03-01T04:03:13;-2.90;99.90
27409;DHT22;20413;50.782;7.152;2023-03-01T04:05:39;-2.90;99.90
27409;DHT22;20413;50.782;7.152;2023-03-01T04:08:06;-2.90;99.90
27409;DHT22;20413;50.782;7.152;2023-03-01T04:10:39;-2.80;99.90
27409;DHT22;20413;50.782;7.152;2023-03-01T04:13:06;-2.80;99.90
27409;DHT22;20413;50.782;7.152;2023-03-01T04:15:33;-2.90;99.90
27409;DHT22;20413;50.782;7.152;2023-03-01T04:17:59;-2.90;99.90
27409;DHT22;20413;50.782;7.152;2023-03-01T04:20:28;-2.90;99.90
27409;DHT22;20413;50.782;7.152;2023-03-01T04:23:03;-2.90;99.90
27409;DHT22;20413;50.782;7.152;2023-03-01T04:25:59;-2.90;99.90
27409;DHT22;20413;50.782;7.152;2023-03-01T04:30:57;-2.80;99.90
27409;DHT22;20413;50.782;7.152;2023-03-01T04:33:24;-2.90;99.90
27409;DHT22;20413;50.782;7.152;2023-03-01T04:35:50;-2.90;99.90
27409;DHT22;20413;50.782;7.152;2023-03-01T04:38:17;-2.90;99.90
27409;DHT22;20413;50.782;7.152;2023-03-01T04:40:43;-3.00;99.90
27409;DHT22;20413;50.782;7.152;2023-03-01T04:43:10;-3.00;99.90
27409;DHT22;20413;50.782;7.152;2023-03-01T04:45:36;-3.00;99.90
27409;DHT22;20413;50.782;7.152;2023-03-01T04:48:02;-3.00;99.90
27409;DHT22;20413;50.782;7.152;2023-03-01T04:50:28;-3.00;99.90
27409;DHT22;20413;50.782;7.152;2023-03-01T04:52:54;-3.00;99.90
27409;DHT22;20413;50.782;7.152;2023-03-01T04:55:27;-3.00;99.90
27409;DHT22;20413;50.782;7.152;2023-03-01T04:57:53;-3.00;99.90
27409;DHT22;20413;50.782;7.152;2023-03-01T05:00:19;-3.00;99.90
27409;DHT22;20413;50.782;7.152;2023-03-01T05:02:50;-2.90;99.90
27409;DHT22;20413;50.782;7.152;2023-03-01T05:05:19;-2.90;99.90
27409;DHT22;20413;50.782;7.152;2023-03-01T05:07:45;-2.90;99.90
27409;DHT22;20413;50.782;7.152;2023-03-01T05:10:11;-2.90;99.90
27409;DHT22;20413;50.782;7.152;2023-03-01T05:12:36;-2.80;99.90
27409;DHT22;20413;50.782;7.152;2023-03-01T05:15:03;-2.80;99.90
27409;DHT22;20413;50.782;7.152;2023-03-01T05:17:33;-2.90;99.90
27409;DHT22;20413;50.782;7.152;2023-03-01T05:19:58;-2.80;99.90
27409;DHT22;20413;50.782;7.152;2023-03-01T05:22:25;-2.80;99.90
27409;DHT22;20413;50.782;7.152;2023-03-01T05:24:50;-2.90;99.90
27409;DHT22;20413;50.782;7.152;2023-03-01T05:27:16;-3.00;99.90
27409;DHT22;20413;50.782;7.152;2023-03-01T05:29:41;-3.20;99.90
27409;DHT22;20413;50.782;7.152;2023-03-01T05:32:07;-3.20;99.90
27409;DHT22;20413;50.782;7.152;2023-03-01T05:34:35;-3.30;99.90
27409;DHT22;20413;50.782;7.152;2023-03-01T05:37:01;-3.30;99.90
27409;DHT22;20413;50.782;7.152;2023-03-01T05:39:29;-3.30;99.90
27409;DHT22;20413;50.782;7.152;2023-03-01T05:41:56;-3.40;99.90
27409;DHT22;20413;50.782;7.152;2023-03-01T05:44:22;-3.40;99.90
27409;DHT22;20413;50.782;7.152;2023-03-01T05:46:48;-3.40;99.90
27409;DHT22;20413;50.782;7.152;2023-03-01T05:49:15;-3.40;99.90
27409;DHT22;20413;50.782;7.152;2023-03-01T05:51:41;-3.30;99.90
27409;DHT22;20413;50.782;7.152;2023-03-01T05:54:09;-3.30;99.90
27409;DHT22;20413;50.782;7.152;2023-03-01T05:56:35;-3.20;99.90
27409;DHT22;20413;50.782;7.152;2023-03-01T05:59:02;-3.20;99.90
27409;DHT22;20413;50.782;7.152;2023-03-01T06:01:28;-3.20;99.90
27409;DHT22;20413;50.782;7.152;2023-03-01T06:03:55;-3.30;99.90
27409;DHT22;20413;50.782;7.152;2023-03-01T06:06:21;-3.30;99.90
27409;DHT22;20413;50.782;7.152;2023-03-01T06:08:46;-3.30;99.90
27409;DHT22;20413;50.782;7.152;2023-03-01T06:11:12;-3.30;99.90
27409;DHT22;20413;50.782;7.152;2023-03-01T06:13:37;-3.40;99.90
27409;DHT22;20413;50.782;7.152;2023-03-01T06:16:06;-3.40;99.90
27409;DHT22;20413;50.782;7.152;2023-03-01T06:18:32;-3.40;99.90
27409;DHT22;20413;50.782;7.152;2023-03-01T06:20:58;-3.40;99.90
27409;DHT22;20413;50.782;7.152;2023-03-01T06:23:24;-3.30;99.90
27409;DHT22;20413;50.782;7.152;2023-03-01T06:25:50;-3.30;99.90
27409;DHT22;20413;50.782;7.152;2023-03-01T06:28:16;-3.30;99.90
27409;DHT22;20413;50.782;7.152;2023-03-01T06:30:41;-3.20;99.90
27409;DHT22;20413;50.782;7.152;2023-03-01T06:33:07;-3.20;99.90
27409;DHT22;20413;50.782;7.152;2023-03-01T06:35:33;-3.20;99.90
27409;DHT22;20413;50.782;7.152;2023-03-01T06:38:01;-3.20;99.90
27409;DHT22;20413;50.782;7.152;2023-03-01T06:40:28;-3.20;99.90
27409;DHT22;20413;50.782;7.152;2023-03-01T06:42:53;-3.20;99.90
27409;DHT22;20413;50.782;7.152;2023-03-01T06:45:20;-3.20;99.90
27409;DHT22;20413;50.782;7.152;2023-03-01T06:47:46;-3.20;99.90
27409;DHT22;20413;50.782;7.152;2023-03-01T06:50:12;-3.20;99.90
27409;DHT22;20413;50.782;7.152;2023-03-01T06:52:38;-3.10;99.90
27409;DHT22;20413;50.782;7.152;2023-03-01T06:55:04;-3.10;99.90
27409;DHT22;20413;50.782;7.152;2023-03-01T06:57:30;-2.90;99.90
27409;DHT22;20413;50.782;7.152;2023-03-01T06:59:55;-2.80;99.90
27409;DHT22;20413;50.782;7.152;2023-03-01T07:02:21;-2.60;99.90
27409;DHT22;20413;50.782;7.152;2023-03-01T07:04:49;-2.60;99.90
27409;DHT22;20413;50.782;7.152;2023-03-01T07:07:16;-2.70;99.90
27409;DHT22;20413;50.782;7.152;2023-03-01T07:09:44;-2.60;99.90
27409;DHT22;20413;50.782;7.152;2023-03-01T07:12:09;-2.60;99.90
27409;DHT22;20413;50.782;7.152;2023-03-01T07:14:35;-2.50;99.90
27409;DHT22;20413;50.782;7.152;2023-03-01T07:17:00;-2.50;99.90
27409;DHT22;20413;50.782;7.152;2023-03-01T07:19:26;-2.40;99.90
27409;DHT22;20413;50.782;7.152;2023-03-01T07:21:52;-2.30;99.90
27409;DHT22;20413;50.782;7.152;2023-03-01T07:24:18;-2.30;99.90
27409;DHT22;20413;50.782;7.152;2023-03-01T07:26:43;-2.30;99.90
27409;DHT22;20413;50.782;7.152;2023-03-01T07:29:10;-2.10;99.90
27409;DHT22;20413;50.782;7.152;2023-03-01T07:31:36;-2.10;99.90
27409;DHT22;20413;50.782;7.152;2023-03-01T07:34:02;-2.10;99.90
27409;DHT22;20413;50.782;7.152;2023-03-01T07:36:28;-2.10;99.90
27409;DHT22;20413;50.782;7.152;2023-03-01T07:38:53;-1.90;99.90
27409;DHT22;20413;50.782;7.152;2023-03-01T07:41:21;-1.80;99.90
27409;DHT22;20413;50.782;7.152;2023-03-01T07:43:46;-1.70;99.90
27409;DHT22;20413;50.782;7.152;2023-03-01T07:46:12;-1.60;99.90
27409;DHT22;20413;50.782;7.152;2023-03-01T07:48:38;-1.50;99.90
27409;DHT22;20413;50.782;7.152;2023-03-01T07:51:05;-1.40;99.90
27409;DHT22;20413;50.782;7.152;2023-03-01T07:53:32;-1.30;99.90
27409;DHT22;20413;50.782;7.152;2023-03-01T07:56:12;-1.30;99.90
27409;DHT22;20413;50.782;7.152;2023-03-01T07:58:40;-1.10;99.90
27409;DHT22;20413;50.782;7.152;2023-03-01T08:01:07;-1.00;99.90
27409;DHT22;20413;50.782;7.152;2023-03-01T08:03:33;-0.90;99.90
27409;DHT22;20413;50.782;7.152;2023-03-01T08:06:00;-0.70;99.90
27409;DHT22;20413;50.782;7.152;2023-03-01T08:08:26;-0.60;99.90
27409;DHT22;20413;50.782;7.152;2023-03-01T08:10:52;-0.50;99.90
27409;DHT22;20413;50.782;7.152;2023-03-01T08:13:18;-0.40;99.90
27409;DHT22;20413;50.782;7.152;2023-03-01T08:15:48;-0.30;99.90
27409;DHT22;20413;50.782;7.152;2023-03-01T08:18:15;-0.20;99.90
27409;DHT22;20413;50.782;7.152;2023-03-01T08:20:40;-0.20;99.90
27409;DHT22;20413;50.782;7.152;2023-03-01T08:23:06;-0.20;99.90
27409;DHT22;20413;50.782;7.152;2023-03-01T08:25:31;-0.10;99.90
27409;DHT22;20413;50.782;7.152;2023-03-01T08:27:57;0.30;99.90
27409;DHT22;20413;50.782;7.152;2023-03-01T08:30:23;0.40;99.90
27409;DHT22;20413;50.782;7.152;2023-03-01T08:32:49;0.70;99.90
27409;DHT22;20413;50.782;7.152;2023-03-01T08:35:15;1.40;99.90
27409;DHT22;20413;50.782;7.152;2023-03-01T08:40:07;3.00;99.90
27409;DHT22;20413;50.782;7.152;2023-03-01T08:42:33;3.60;99.90
